createdAt,value
2022-08-17T00:01:52.713Z,10.48
2022-08-17T00:04:19.614Z,10.75
2022-08-17T00:06:46.190Z,10.13
2022-08-17T00:12:42.827Z,9.73
2022-08-17T00:14:39.023Z,9.57
2022-08-17T00:17:04.944Z,9.70
2022-08-17T00:19:30.883Z,10.82
2022-08-17T00:22:32.747Z,9.88
2022-08-17T00:24:42.821Z,10.55
2022-08-17T00:27:09.331Z,11.13
2022-08-17T00:36:35.539Z,10.38
2022-08-17T00:39:01.520Z,10.60
2022-08-17T00:41:27.467Z,10.60
2022-08-17T00:43:56.199Z,10.45
2022-08-17T00:46:24.541Z,11.43
2022-08-17T00:48:50.606Z,10.30
2022-08-17T00:51:22.368Z,9.95
2022-08-17T00:58:48.719Z,10.15
2022-08-17T01:01:21.294Z,10.75
2022-08-17T01:03:49.553Z,10.05
2022-08-17T01:06:15.645Z,11.23
2022-08-17T01:08:42.146Z,11.18
2022-08-17T01:11:08.298Z,11.68
2022-08-17T01:13:40.690Z,10.85
2022-08-17T01:20:47.890Z,10.88
2022-08-17T01:23:18.524Z,10.88
2022-08-17T01:25:49.229Z,11.55
2022-08-17T01:28:33.364Z,12.05
2022-08-17T01:31:04.083Z,10.77
2022-08-17T01:33:30.011Z,11.45
2022-08-17T01:35:56.567Z,11.82
2022-08-17T01:43:32.030Z,11.73
2022-08-17T01:46:03.843Z,11.68
2022-08-17T01:48:31.602Z,13.13
2022-08-17T01:50:57.829Z,11.88
2022-08-17T01:53:26.801Z,12.57
2022-08-17T01:55:56.940Z,12.77
2022-08-17T01:58:22.908Z,12.90
2022-08-17T02:07:21.689Z,14.68
2022-08-17T02:09:53.002Z,12.43
2022-08-17T02:12:39.279Z,11.98
2022-08-17T02:15:08.556Z,12.80
2022-08-17T02:17:34.732Z,13.20
2022-08-17T02:20:00.901Z,12.05
2022-08-17T02:22:28.230Z,12.30
2022-08-17T02:30:05.168Z,12.00
2022-08-17T02:32:51.741Z,12.18
2022-08-17T02:35:19.400Z,12.88
2022-08-17T02:37:48.984Z,12.93
2022-08-17T02:40:35.862Z,13.13
2022-08-17T02:43:03.454Z,12.98
2022-08-17T02:45:30.128Z,12.90
2022-08-17T02:53:02.376Z,12.98
2022-08-17T02:55:31.352Z,13.82
2022-08-17T02:57:57.215Z,13.52
2022-08-17T03:00:25.912Z,13.40
2022-08-17T03:02:52.219Z,14.13
2022-08-17T03:05:20.730Z,14.18
2022-08-17T03:07:46.603Z,13.50
2022-08-17T03:15:18.213Z,15.18
2022-08-17T03:17:44.523Z,14.07
2022-08-17T03:20:11.631Z,15.07
2022-08-17T03:22:40.249Z,14.30
2022-08-17T03:25:10.512Z,14.05
2022-08-17T03:27:37.317Z,14.93
2022-08-17T03:30:07.294Z,14.68
2022-08-17T03:37:36.367Z,14.55
2022-08-17T03:40:04.249Z,15.32
2022-08-17T03:42:32.498Z,14.85
2022-08-17T03:44:59.965Z,14.40
2022-08-17T03:47:25.930Z,14.35
2022-08-17T03:49:51.889Z,14.77
2022-08-17T03:52:17.840Z,15.57
2022-08-17T03:59:47.726Z,14.93
2022-08-17T04:02:18.511Z,15.90
2022-08-17T04:04:44.432Z,15.05
2022-08-17T04:07:10.336Z,15.13
2022-08-17T04:09:36.294Z,14.82
2022-08-17T04:12:04.635Z,14.48
2022-08-17T04:14:31.252Z,15.00
2022-08-17T04:19:34.095Z,14.75
2022-08-17T04:22:00.127Z,15.60
2022-08-17T04:24:26.262Z,15.23
2022-08-17T04:26:54.383Z,14.80
2022-08-17T04:29:20.847Z,14.77
2022-08-17T04:31:46.706Z,14.90
2022-08-17T04:34:12.657Z,15.25
2022-08-17T04:40:03.950Z,15.65
2022-08-17T04:42:30.379Z,14.95
2022-08-17T04:44:56.217Z,15.32
2022-08-17T04:47:22.058Z,14.50
2022-08-17T04:49:47.903Z,14.25
2022-08-17T04:52:29.705Z,13.88
2022-08-17T04:55:03.023Z,13.30
2022-08-17T05:02:32.952Z,12.88
2022-08-17T05:04:58.803Z,13.18
2022-08-17T05:07:30.892Z,12.73
2022-08-17T05:09:57.366Z,14.18
2022-08-17T05:12:23.201Z,13.02
2022-08-17T05:14:49.041Z,13.40
2022-08-17T05:17:14.943Z,14.52
2022-08-17T05:26:29.435Z,14.15
2022-08-17T05:28:58.514Z,14.23
2022-08-17T05:31:25.951Z,15.43
2022-08-17T05:33:52.015Z,14.80
2022-08-17T05:36:41.963Z,14.60
2022-08-17T05:39:03.782Z,14.30
2022-08-17T05:41:30.341Z,14.23
2022-08-17T05:46:40.633Z,14.63
2022-08-17T05:49:07.609Z,14.95
2022-08-17T05:51:51.334Z,15.27
2022-08-17T05:54:33.569Z,14.88
2022-08-17T05:57:17.860Z,15.30
2022-08-17T05:59:56.848Z,14.88
2022-08-17T06:06:21.476Z,14.63
2022-08-17T06:09:01.457Z,15.30
2022-08-17T06:11:36.053Z,15.38
2022-08-17T06:14:17.822Z,15.43
2022-08-17T06:16:47.279Z,15.20
2022-08-17T06:19:17.972Z,15.20
2022-08-17T06:21:48.412Z,15.63
2022-08-17T06:29:22.188Z,16.95
2022-08-17T06:31:48.192Z,17.60
2022-08-17T06:34:14.301Z,17.25
2022-08-17T06:37:01.701Z,17.60
2022-08-17T06:39:39.327Z,18.58
2022-08-17T06:43:05.074Z,20.25
2022-08-17T06:50:14.048Z,19.83
2022-08-17T06:52:53.272Z,20.23
2022-08-17T06:55:24.584Z,22.80
2022-08-17T06:57:54.420Z,21.88
2022-08-17T07:00:23.671Z,22.65
2022-08-17T07:02:54.408Z,24.02
2022-08-17T07:05:24.941Z,25.27
2022-08-17T07:12:54.458Z,27.13
2022-08-17T07:15:28.034Z,26.02
2022-08-17T07:17:54.060Z,25.92
2022-08-17T07:20:21.208Z,26.88
2022-08-17T07:22:59.615Z,27.73
2022-08-17T07:25:27.978Z,26.15
2022-08-17T07:27:57.138Z,26.85
2022-08-17T07:35:40.627Z,27.13
2022-08-17T07:38:24.906Z,28.30
2022-08-17T07:41:00.896Z,28.40
2022-08-17T07:43:29.523Z,29.42
2022-08-17T07:46:02.032Z,29.60
2022-08-17T07:48:28.011Z,31.20
2022-08-17T07:53:31.589Z,30.13
2022-08-17T07:55:57.474Z,32.58
2022-08-17T07:58:23.838Z,30.38
2022-08-17T08:01:04.749Z,32.65
2022-08-17T08:03:32.352Z,33.00
2022-08-17T08:06:01.247Z,33.15
2022-08-17T08:08:31.869Z,35.00
2022-08-17T08:13:49.673Z,37.42
2022-08-17T08:16:25.489Z,34.85
2022-08-17T08:18:56.810Z,34.17
2022-08-17T08:21:45.570Z,32.67
2022-08-17T08:24:36.866Z,32.22
2022-08-17T08:27:12.997Z,31.77
2022-08-17T08:29:52.236Z,30.77
2022-08-17T08:37:37.991Z,30.77
2022-08-17T08:40:31.252Z,29.45
2022-08-17T08:43:10.693Z,29.38
2022-08-17T08:45:46.170Z,29.00
2022-08-17T08:48:53.305Z,29.15
2022-08-17T08:51:19.262Z,29.98
2022-08-17T08:57:43.478Z,28.27
2022-08-17T09:00:13.727Z,29.60
2022-08-17T09:03:15.242Z,29.02
2022-08-17T09:05:57.914Z,29.38
2022-08-17T09:08:30.872Z,28.73
2022-08-17T09:11:03.028Z,28.17
2022-08-17T09:13:38.520Z,30.42
2022-08-17T09:21:18.185Z,27.95
2022-08-17T09:23:49.574Z,27.80
2022-08-17T09:26:19.852Z,28.77
2022-08-17T09:28:49.822Z,28.73
2022-08-17T09:31:21.354Z,28.67
2022-08-17T09:33:48.623Z,26.90
2022-08-17T09:36:22.224Z,27.00
2022-08-17T09:44:04.837Z,26.23
2022-08-17T09:46:35.823Z,26.73
2022-08-17T09:49:09.675Z,26.60
2022-08-17T09:51:40.755Z,25.83
2022-08-17T09:54:38.099Z,26.35
2022-08-17T09:57:28.706Z,27.42
2022-08-17T10:04:04.742Z,26.65
2022-08-17T10:06:38.574Z,27.50
2022-08-17T10:09:13.891Z,29.58
2022-08-17T10:11:48.242Z,28.27
2022-08-17T10:14:36.249Z,29.17
2022-08-17T10:17:14.782Z,28.92
2022-08-17T10:26:09.479Z,30.30
2022-08-17T10:28:40.780Z,28.17
2022-08-17T10:31:33.812Z,29.42
2022-08-17T10:34:36.134Z,29.95
2022-08-17T10:37:23.784Z,30.38
2022-08-17T10:39:57.624Z,30.45
2022-08-17T10:45:18.378Z,29.67
2022-08-17T10:48:02.576Z,31.65
2022-08-17T10:50:56.979Z,30.67
2022-08-17T10:56:19.575Z,30.55
2022-08-17T10:58:48.142Z,30.55
2022-08-17T11:06:52.069Z,31.67
2022-08-17T11:09:30.590Z,31.63
2022-08-17T11:12:17.887Z,30.35
2022-08-17T11:15:03.106Z,31.05
2022-08-17T11:17:59.519Z,31.17
2022-08-17T11:20:52.757Z,31.10
2022-08-17T11:27:05.692Z,29.55
2022-08-17T11:29:49.380Z,30.52
2022-08-17T11:32:31.938Z,31.80
2022-08-17T11:35:07.754Z,32.72
2022-08-17T11:37:45.905Z,31.75
2022-08-17T11:40:35.428Z,30.88
2022-08-17T11:46:13.067Z,31.88
2022-08-17T11:48:46.583Z,33.55
2022-08-17T11:51:15.653Z,33.80
2022-08-17T11:56:57.956Z,34.13
2022-08-17T11:59:52.460Z,34.55
2022-08-17T12:05:25.250Z,34.95
2022-08-17T12:08:00.199Z,34.47
2022-08-17T12:10:29.815Z,35.25
2022-08-17T12:12:55.966Z,35.10
2022-08-17T12:15:29.204Z,35.00
2022-08-17T12:17:56.573Z,33.88
2022-08-17T12:20:36.051Z,35.25
2022-08-17T12:28:19.899Z,35.92
2022-08-17T12:30:49.092Z,35.13
2022-08-17T12:35:59.443Z,34.15
2022-08-17T12:38:32.130Z,35.00
2022-08-17T12:40:59.196Z,36.17
2022-08-17T12:43:27.463Z,34.70
2022-08-17T12:50:30.446Z,31.00
2022-08-17T12:53:01.300Z,31.25
2022-08-17T12:55:34.209Z,31.08
2022-08-17T12:58:01.958Z,29.15
2022-08-17T13:00:32.239Z,29.52
2022-08-17T13:03:00.425Z,28.92
2022-08-17T13:05:30.081Z,30.30
2022-08-17T13:12:55.738Z,29.90
2022-08-17T13:15:29.826Z,30.88
2022-08-17T13:18:04.488Z,30.33
2022-08-17T13:20:32.709Z,29.92
2022-08-17T13:23:02.583Z,30.10
2022-08-17T13:25:29.993Z,31.17
2022-08-17T13:27:56.833Z,30.58
2022-08-17T13:35:39.929Z,30.13
2022-08-17T13:38:08.865Z,29.63
2022-08-17T13:40:43.287Z,29.95
2022-08-17T13:43:11.585Z,29.40
2022-08-17T13:45:45.340Z,28.70
2022-08-17T13:48:23.137Z,29.63
2022-08-17T13:53:31.328Z,29.40
2022-08-17T13:58:28.686Z,27.77
2022-08-17T14:00:54.777Z,28.65
2022-08-17T14:03:21.380Z,27.77
2022-08-17T14:05:48.238Z,27.67
2022-08-17T14:08:15.956Z,27.58
2022-08-17T14:15:55.695Z,28.98
2022-08-17T14:18:55.772Z,28.65
2022-08-17T14:21:09.265Z,27.35
2022-08-17T14:23:36.230Z,26.60
2022-08-17T14:26:02.721Z,29.30
2022-08-17T14:28:32.237Z,28.63
2022-08-17T14:30:59.750Z,28.92
2022-08-17T14:38:30.248Z,26.13
2022-08-17T14:40:56.509Z,26.55
2022-08-17T14:43:22.403Z,26.17
2022-08-17T14:45:48.324Z,26.20
2022-08-17T14:48:14.549Z,25.48
2022-08-17T14:50:42.381Z,25.98
2022-08-17T14:53:11.290Z,25.83
2022-08-17T15:00:41.068Z,28.63
2022-08-17T15:03:07.013Z,27.17
2022-08-17T15:05:35.631Z,27.80
2022-08-17T15:08:03.182Z,26.70
2022-08-17T15:10:32.002Z,23.83
2022-08-17T15:12:58.835Z,20.83
2022-08-17T15:15:25.631Z,22.65
2022-08-17T15:23:11.803Z,20.80
2022-08-17T15:25:37.793Z,18.38
2022-08-17T15:28:03.849Z,18.52
2022-08-17T15:30:30.241Z,19.23
2022-08-17T15:32:57.262Z,18.42
2022-08-17T15:35:27.784Z,19.80
2022-08-17T15:37:55.535Z,20.00
2022-08-17T15:40:22.221Z,19.48
2022-08-17T15:47:54.014Z,17.42
2022-08-17T15:50:20.354Z,18.27
2022-08-17T15:52:46.504Z,17.80
2022-08-17T15:55:15.489Z,17.15
2022-08-17T15:57:41.689Z,20.08
2022-08-17T16:00:09.102Z,19.95
2022-08-17T16:03:44.866Z,19.10
2022-08-17T16:10:35.732Z,20.20
2022-08-17T16:13:03.272Z,19.85
2022-08-17T16:15:29.125Z,18.70
2022-08-17T16:17:55.235Z,18.95
2022-08-17T16:20:21.343Z,18.52
2022-08-17T16:22:48.899Z,17.55
2022-08-17T16:25:17.488Z,18.80
2022-08-17T16:32:49.501Z,18.90
2022-08-17T16:35:15.684Z,18.80
2022-08-17T16:37:44.589Z,20.42
2022-08-17T16:40:13.270Z,20.40
2022-08-17T16:42:39.571Z,20.15
2022-08-17T16:45:09.767Z,19.25
2022-08-17T16:47:36.379Z,16.98
2022-08-17T16:55:07.977Z,17.98
2022-08-17T16:57:35.275Z,18.10
2022-08-17T17:00:01.320Z,18.50
2022-08-17T17:02:30.125Z,17.40
2022-08-17T17:05:13.382Z,18.35
2022-08-17T17:08:00.762Z,17.17
2022-08-17T17:10:32.797Z,19.10
2022-08-17T17:17:51.185Z,18.63
2022-08-17T17:20:22.631Z,18.83
2022-08-17T17:23:01.384Z,20.38
2022-08-17T17:25:33.102Z,21.00
2022-08-17T17:30:31.639Z,18.33
2022-08-17T17:33:03.170Z,16.98
2022-08-17T17:40:37.457Z,15.25
2022-08-17T17:43:34.763Z,16.38
2022-08-17T17:45:55.859Z,15.90
2022-08-17T17:48:22.255Z,19.48
2022-08-17T17:50:53.383Z,23.27
2022-08-17T17:53:35.280Z,22.13
2022-08-17T18:03:02.233Z,24.45
2022-08-17T18:06:01.878Z,25.25
2022-08-17T18:08:57.151Z,24.83
2022-08-17T18:11:52.716Z,24.67
2022-08-17T18:14:31.369Z,26.08
2022-08-17T18:16:59.623Z,25.25
2022-08-17T18:22:07.155Z,25.55
2022-08-17T18:24:36.222Z,26.52
2022-08-17T18:27:16.875Z,25.55
2022-08-17T18:29:44.797Z,24.85
2022-08-17T18:32:16.594Z,24.23
2022-08-17T18:37:30.170Z,23.27
2022-08-17T18:44:59.562Z,25.50
2022-08-17T18:47:27.511Z,25.02
2022-08-17T18:49:56.340Z,24.52
2022-08-17T18:52:24.242Z,25.05
2022-08-17T18:55:12.375Z,25.40
2022-08-17T18:57:42.154Z,25.70
2022-08-17T19:00:15.424Z,24.38
2022-08-17T19:07:50.715Z,24.23
2022-08-17T19:10:23.085Z,22.83
2022-08-17T19:12:54.345Z,23.55
2022-08-17T19:15:32.258Z,21.55
2022-08-17T19:18:02.579Z,22.02
2022-08-17T19:20:33.798Z,21.73
2022-08-17T19:23:09.359Z,21.63
2022-08-17T19:30:37.858Z,19.80
2022-08-17T19:33:07.915Z,21.90
2022-08-17T19:35:43.465Z,20.75
2022-08-17T19:38:18.890Z,20.20
2022-08-17T19:40:57.964Z,19.42
2022-08-17T19:43:41.270Z,18.88
2022-08-17T19:46:17.957Z,20.48
2022-08-17T19:54:05.544Z,20.42
2022-08-17T19:56:43.253Z,19.73
2022-08-17T19:59:14.896Z,20.67
2022-08-17T20:01:46.608Z,19.83
2022-08-17T20:06:44.565Z,19.38
2022-08-17T20:09:19.210Z,20.08
2022-08-17T20:16:48.132Z,20.77
2022-08-17T20:19:22.183Z,21.60
2022-08-17T20:21:53.036Z,20.85
2022-08-17T20:24:25.002Z,21.40
2022-08-17T20:26:58.500Z,22.30
2022-08-17T20:30:00.635Z,21.60
2022-08-17T20:32:28.752Z,21.35
2022-08-17T20:40:23.079Z,21.70
2022-08-17T20:42:49.020Z,21.73
2022-08-17T20:45:52.413Z,21.83
2022-08-17T20:48:37.438Z,22.30
2022-08-17T20:51:28.405Z,22.75
2022-08-17T20:54:14.763Z,23.08
2022-08-17T20:56:53.080Z,23.33
2022-08-17T21:02:21.515Z,23.88
2022-08-17T21:04:59.853Z,23.55
2022-08-17T21:07:28.163Z,23.00
2022-08-17T21:10:10.077Z,25.02
2022-08-17T21:15:21.973Z,24.52
2022-08-17T21:17:56.451Z,26.08
2022-08-17T21:25:44.194Z,29.05
2022-08-17T21:28:22.477Z,28.45
2022-08-17T21:30:58.847Z,28.38
2022-08-17T21:33:29.935Z,27.83
2022-08-17T21:36:24.628Z,28.00
2022-08-17T21:39:10.609Z,24.48
2022-08-17T21:48:54.659Z,26.40
2022-08-17T21:51:24.796Z,27.38
2022-08-17T21:53:53.814Z,26.70
2022-08-17T21:56:23.750Z,27.67
2022-08-17T21:58:55.882Z,29.35
2022-08-17T22:01:25.460Z,26.42
2022-08-17T22:03:59.379Z,26.58
2022-08-17T22:11:29.501Z,26.42
2022-08-17T22:14:05.133Z,26.25
2022-08-17T22:16:32.111Z,25.85
2022-08-17T22:18:58.490Z,28.15
2022-08-17T22:21:25.162Z,28.77
2022-08-17T22:24:00.417Z,27.48
2022-08-17T22:32:46.530Z,28.15
2022-08-17T22:35:28.331Z,27.27
2022-08-17T22:37:54.610Z,28.83
2022-08-17T22:40:26.938Z,27.73
2022-08-17T22:42:52.950Z,27.77
2022-08-17T22:45:18.910Z,27.77
2022-08-17T22:47:45.678Z,27.88
2022-08-17T22:55:16.963Z,27.83
2022-08-17T22:57:45.480Z,29.45
2022-08-17T23:00:29.821Z,28.80
2022-08-17T23:03:17.292Z,29.33
2022-08-17T23:05:45.552Z,28.35
2022-08-17T23:08:12.482Z,30.67
2022-08-17T23:10:39.535Z,29.20
2022-08-17T23:18:09.170Z,31.05
2022-08-17T23:20:38.104Z,32.05
2022-08-17T23:23:05.312Z,31.50
2022-08-17T23:25:33.153Z,35.38
2022-08-17T23:28:00.973Z,35.95
2022-08-17T23:30:27.168Z,36.33
2022-08-17T23:32:54.266Z,35.72
2022-08-17T23:40:23.981Z,36.53
2022-08-17T23:42:50.542Z,36.25
2022-08-17T23:45:16.864Z,37.45
2022-08-17T23:47:43.029Z,36.10
2022-08-17T23:50:09.265Z,36.60
2022-08-17T23:52:35.845Z,36.72
2022-08-17T23:55:02.587Z,37.67
